Time;durP1;ratioP1;P1;durP2;ratioP2;P2;SDS_P1;SDS_P2;PMS_P1;PMS_P2;Temp;Humidity;BMP_temperature;BMP_pressure;BME280_temperature;BME280_humidity;BME280_pressure;Samples;Min_cycle;Max_cycle;Signal;HPM_P1;HPM_P2
2022/10/11 12:16:08;;;;;;;129.77;11.18;;;;;;;;;;5642260;23;20454;-66
2022/10/11 12:18:45;;;;;;;31.70;5.18;;;;;;;;;;4902738;29;20040;-67
2022/10/11 12:21:21;;;;;;;46.63;5.90;;;;;;;;;;4913505;29;20044;-66
2022/10/11 12:24:08;;;;;;;34.53;3.80;;;;;;;;;;4897272;29;20048;-66
2022/10/11 12:26:36;;;;;;;76.22;7.65;;;;;;;;;;4854393;29;20149;-66
2022/10/11 12:29:04;;;;;;;24.35;3.15;;;;;;;;;;4851711;29;20562;-66
2022/10/11 12:31:33;;;;;;;33.28;4.70;;;;;;;;;;4850949;29;20057;-66
2022/10/11 12:34:00;;;;;;;35.08;4.10;;;;;;;;;;4850696;29;20038;-66
2022/10/11 12:36:35;;;;;;;22.98;3.70;;;;;;;;;;4851585;29;20577;-67
2022/10/11 12:39:19;;;;;;;31.48;3.55;;;;;;;;;;4851859;29;20140;-66
2022/10/11 12:41:46;;;;;;;45.03;4.75;;;;;;;;;;4851714;29;20457;-68
2022/10/11 12:44:13;;;;;;;39.25;4.55;;;;;;;;;;4852140;29;20061;-67
2022/10/11 12:46:41;;;;;;;50.10;5.05;;;;;;;;;;4850324;29;20046;-66
2022/10/11 12:49:08;;;;;;;58.50;5.70;;;;;;;;;;4852961;29;20554;-66
2022/10/11 12:51:39;;;;;;;30.35;3.70;;;;;;;;;;4851898;29;20058;-66
2022/10/11 12:54:13;;;;;;;16.98;3.10;;;;;;;;;;4840004;29;20610;-69
2022/10/11 12:57:03;;;;;;;40.95;4.45;;;;;;;;;;4839724;29;20215;-69
2022/10/11 12:59:41;;;;;;;26.55;3.25;;;;;;;;;;4844903;29;20042;-67
2022/10/11 13:02:26;;;;;;;26.08;3.08;;;;;;;;;;4856073;29;20053;-66
2022/10/11 13:05:05;;;;;;;32.92;4.05;;;;;;;;;;4914808;29;20067;-66
2022/10/11 13:07:33;;;;;;;56.88;5.47;;;;;;;;;;4916745;29;20632;-67
2022/10/11 13:09:59;;;;;;;26.80;4.60;;;;;;;;;;4916001;29;20428;-66
2022/10/11 13:12:27;;;;;;;30.15;3.38;;;;;;;;;;4915932;29;20526;-67
2022/10/11 13:15:02;;;;;;;50.33;5.13;;;;;;;;;;4916262;29;20490;-66
2022/10/11 13:17:30;;;;;;;37.92;4.28;;;;;;;;;;4916428;29;20052;-66
2022/10/11 13:20:23;;;;;;;25.40;3.22;;;;;;;;;;4916480;29;20126;-66
2022/10/11 13:22:52;;;;;;;22.17;2.90;;;;;;;;;;4915974;29;20127;-69
2022/10/11 13:25:21;;;;;;;50.47;5.20;;;;;;;;;;4899117;29;20515;-68
2022/10/11 13:27:48;;;;;;;36.97;4.18;;;;;;;;;;4916439;29;20040;-66
2022/10/11 13:30:17;;;;;;;27.70;4.55;;;;;;;;;;4915722;29;20044;-66
2022/10/11 13:32:44;;;;;;;54.50;4.97;;;;;;;;;;4898913;29;20040;-66
2022/10/11 13:35:16;;;;;;;40.65;4.25;;;;;;;;;;4899615;29;20043;-66
2022/10/11 13:37:49;;;;;;;42.42;3.92;;;;;;;;;;4915830;29;20107;-66
2022/10/11 13:40:17;;;;;;;66.45;6.00;;;;;;;;;;4915598;29;20378;-66
2022/10/11 13:42:44;;;;;;;44.28;5.00;;;;;;;;;;4898701;29;20471;-66
2022/10/11 13:45:15;;;;;;;35.65;4.65;;;;;;;;;;4898884;29;20048;-69
2022/10/11 13:47:42;;;;;;;61.17;6.03;;;;;;;;;;4915878;29;20493;-67
2022/10/11 13:50:14;;;;;;;21.13;3.22;;;;;;;;;;4916048;29;20419;-67
2022/10/11 13:52:49;;;;;;;38.42;3.88;;;;;;;;;;4915828;29;20485;-67
2022/10/11 13:55:22;;;;;;;28.27;3.75;;;;;;;;;;4915026;29;20048;-67
2022/10/11 13:57:51;;;;;;;26.58;3.53;;;;;;;;;;4915417;29;20058;-66
2022/10/11 14:00:20;;;;;;;38.28;3.55;;;;;;;;;;4913934;29;20185;-67
2022/10/11 14:02:49;;;;;;;50.13;5.25;;;;;;;;;;4915582;29;20520;-67
2022/10/11 14:05:25;;;;;;;24.58;3.28;;;;;;;;;;4916041;29;20050;-66
2022/10/11 14:07:52;;;;;;;22.35;2.70;;;;;;;;;;4915207;29;20042;-66
2022/10/11 14:10:19;;;;;;;33.17;4.13;;;;;;;;;;4898007;29;20541;-66
2022/10/11 14:12:56;;;;;;;64.35;5.63;;;;;;;;;;4915509;29;20071;-67
2022/10/11 14:15:25;;;;;;;51.70;5.22;;;;;;;;;;4914749;29;20056;-66
2022/10/11 14:17:51;;;;;;;90.15;6.90;;;;;;;;;;4914950;29;20040;-67
2022/10/11 14:20:18;;;;;;;39.15;4.38;;;;;;;;;;4915767;29;20052;-69
2022/10/11 14:22:45;;;;;;;35.65;4.53;;;;;;;;;;4898115;29;20059;-67
2022/10/11 14:25:12;;;;;;;30.90;4.07;;;;;;;;;;4914133;29;20036;-67
2022/10/11 14:27:38;;;;;;;51.85;5.43;;;;;;;;;;4914778;29;20052;-66
2022/10/11 14:30:07;;;;;;;53.25;6.20;;;;;;;;;;4914600;29;20036;-66
2022/10/11 14:32:55;;;;;;;49.60;5.93;;;;;;;;;;4899390;29;20044;-67
2022/10/11 14:35:27;;;;;;;27.33;3.60;;;;;;;;;;4898631;29;20048;-67
2022/10/11 14:37:53;;;;;;;31.70;3.53;;;;;;;;;;4914561;29;20040;-66
2022/10/11 14:40:21;;;;;;;27.65;3.28;;;;;;;;;;4914141;29;20528;-67
2022/10/11 14:42:48;;;;;;;34.95;4.32;;;;;;;;;;4914272;29;20048;-66
2022/10/11 14:45:14;;;;;;;41.83;4.80;;;;;;;;;;4914094;29;20044;-66
2022/10/11 14:47:41;;;;;;;41.75;4.65;;;;;;;;;;4914834;29;20041;-65
2022/10/11 14:50:27;;;;;;;39.28;5.20;;;;;;;;;;4915862;29;20056;-66
2022/10/11 14:52:54;;;;;;;35.53;5.10;;;;;;;;;;4913957;29;20048;-66
2022/10/11 14:55:21;;;;;;;47.70;5.55;;;;;;;;;;4914570;29;20045;-68
2022/10/11 14:57:48;;;;;;;49.83;5.43;;;;;;;;;;4914332;29;20043;-67
2022/10/11 15:00:22;;;;;;;47.63;5.32;;;;;;;;;;4913770;29;20126;-68
2022/10/11 15:02:49;;;;;;;35.20;4.68;;;;;;;;;;4914684;29;20044;-67
2022/10/11 15:05:16;;;;;;;29.25;4.10;;;;;;;;;;4914516;29;20106;-67
2022/10/11 15:07:42;;;;;;;65.72;6.35;;;;;;;;;;4913730;29;20417;-66
2022/10/11 15:10:15;;;;;;;33.65;3.75;;;;;;;;;;4914821;29;20044;-65
2022/10/11 15:12:42;;;;;;;57.38;5.43;;;;;;;;;;4913594;29;20099;-66
2022/10/11 15:15:08;;;;;;;66.25;6.85;;;;;;;;;;4913900;29;20063;-68
2022/10/11 15:17:41;;;;;;;52.92;6.40;;;;;;;;;;4914722;29;20095;-68
2022/10/11 15:20:11;;;;;;;56.17;5.85;;;;;;;;;;4914187;29;20050;-68
2022/10/11 15:22:37;;;;;;;31.40;4.90;;;;;;;;;;4913728;29;20501;-68
2022/10/11 15:25:04;;;;;;;29.30;4.15;;;;;;;;;;4913142;29;20099;-67
2022/10/11 15:27:31;;;;;;;56.03;7.40;;;;;;;;;;4913705;29;20489;-68
2022/10/11 15:29:57;;;;;;;53.00;5.70;;;;;;;;;;4896677;29;20060;-67
2022/10/11 15:32:23;;;;;;;212.25;109.40;;;;;;;;;;4914795;29;20040;-67
2022/10/11 15:34:50;;;;;;;133.40;10.25;;;;;;;;;;4897215;29;20408;-67
2022/10/11 15:37:16;;;;;;;29.58;4.50;;;;;;;;;;4913200;29;20424;-67
2022/10/11 15:39:43;;;;;;;53.15;6.32;;;;;;;;;;4913654;29;20040;-67
2022/10/11 15:42:09;;;;;;;46.83;5.88;;;;;;;;;;4913735;29;20044;-67
2022/10/11 15:44:36;;;;;;;36.42;5.13;;;;;;;;;;4913785;29;20052;-67
2022/10/11 15:47:02;;;;;;;23.23;3.58;;;;;;;;;;4914168;29;20048;-67
2022/10/11 15:49:29;;;;;;;62.75;8.43;;;;;;;;;;4880803;29;20052;-67
2022/10/11 15:51:55;;;;;;;32.67;5.85;;;;;;;;;;4913031;29;20040;-67
2022/10/11 15:54:22;;;;;;;33.00;5.63;;;;;;;;;;4913273;29;20068;-67
2022/10/11 15:56:48;;;;;;;54.75;7.68;;;;;;;;;;4913625;29;20552;-68
2022/10/11 15:59:15;;;;;;;34.30;7.78;;;;;;;;;;4913672;29;20060;-67
2022/10/11 16:01:42;;;;;;;45.22;7.03;;;;;;;;;;4913409;29;20048;-67
2022/10/11 16:04:08;;;;;;;39.90;6.60;;;;;;;;;;4913385;29;20052;-68
2022/10/11 16:06:35;;;;;;;27.95;6.00;;;;;;;;;;4913703;29;20040;-67
2022/10/11 16:09:01;;;;;;;42.92;8.98;;;;;;;;;;4912964;29;20087;-68
2022/10/11 16:11:28;;;;;;;54.25;8.93;;;;;;;;;;4913756;29;20036;-67
2022/10/11 16:13:54;;;;;;;42.38;9.55;;;;;;;;;;4912996;29;20075;-67
2022/10/11 16:16:21;;;;;;;39.85;8.55;;;;;;;;;;4913316;29;20063;-67
2022/10/11 16:18:50;;;;;;;33.78;7.35;;;;;;;;;;4913095;29;20055;-67
2022/10/11 16:21:17;;;;;;;52.58;8.00;;;;;;;;;;4912763;29;20124;-67
2022/10/11 16:23:43;;;;;;;44.63;8.43;;;;;;;;;;4912458;29;20044;-67
2022/10/11 16:26:12;;;;;;;40.33;9.85;;;;;;;;;;4913166;29;21093;-67
2022/10/11 16:28:38;;;;;;;46.28;9.02;;;;;;;;;;4913024;29;20044;-67
2022/10/11 16:31:06;;;;;;;56.17;11.73;;;;;;;;;;4912616;29;20139;-67
2022/10/11 16:33:33;;;;;;;59.35;12.52;;;;;;;;;;4912750;29;20082;-67
2022/10/11 16:36:30;;;;;;;52.92;12.20;;;;;;;;;;4912750;29;20469;-67
2022/10/11 16:38:50;;;;;;;90.47;24.30;;;;;;;;;;4912767;29;20103;-67
2022/10/11 16:41:17;;;;;;;77.63;21.50;;;;;;;;;;4913558;29;20051;-67
2022/10/11 16:43:43;;;;;;;88.63;23.58;;;;;;;;;;4912520;29;20059;-67
2022/10/11 16:46:10;;;;;;;88.35;31.27;;;;;;;;;;4912425;29;20073;-66
2022/10/11 16:48:36;;;;;;;105.50;35.63;;;;;;;;;;4912714;29;20051;-67
2022/10/11 16:51:06;;;;;;;75.20;30.70;;;;;;;;;;4912689;29;20044;-66
2022/10/11 16:53:33;;;;;;;84.75;27.92;;;;;;;;;;4913250;29;20044;-67
2022/10/11 16:56:03;;;;;;;72.82;28.15;;;;;;;;;;4913347;29;20044;-67
2022/10/11 16:58:30;;;;;;;106.13;27.52;;;;;;;;;;4912499;29;20047;-67
2022/10/11 17:00:57;;;;;;;75.43;22.10;;;;;;;;;;4912835;29;20112;-67
2022/10/11 17:03:23;;;;;;;128.02;25.73;;;;;;;;;;4895550;29;20048;-67
2022/10/11 17:05:50;;;;;;;84.57;21.23;;;;;;;;;;4912709;29;20143;-67
2022/10/11 17:08:17;;;;;;;102.82;23.20;;;;;;;;;;4913672;29;20045;-67
2022/10/11 17:10:46;;;;;;;117.22;21.75;;;;;;;;;;4912706;29;20068;-67
2022/10/11 17:13:12;;;;;;;84.78;20.27;;;;;;;;;;4912491;29;20437;-67
2022/10/11 17:15:39;;;;;;;86.03;22.25;;;;;;;;;;4912031;29;20052;-66
2022/10/11 17:18:05;;;;;;;82.82;22.52;;;;;;;;;;4913131;29;20095;-66
2022/10/11 17:20:32;;;;;;;76.15;21.83;;;;;;;;;;4913488;29;20056;-70
2022/10/11 17:22:58;;;;;;;102.85;27.17;;;;;;;;;;4915836;29;20044;-70
2022/10/11 17:25:25;;;;;;;91.22;26.00;;;;;;;;;;4917238;29;20048;-75
2022/10/11 17:27:53;;;;;;;92.57;32.15;;;;;;;;;;4911839;29;20539;-72
2022/10/11 17:30:20;;;;;;;131.23;36.90;;;;;;;;;;4912374;29;20048;-65
2022/10/11 17:32:47;;;;;;;113.15;32.83;;;;;;;;;;4912419;29;20048;-65
2022/10/11 17:35:13;;;;;;;166.70;32.20;;;;;;;;;;4913200;29;20044;-81
2022/10/11 17:37:40;;;;;;;126.15;31.23;;;;;;;;;;4915302;29;20040;-81
2022/10/11 17:40:07;;;;;;;134.60;37.28;;;;;;;;;;4914882;29;20489;-78
2022/10/11 17:42:33;;;;;;;114.38;38.38;;;;;;;;;;4916094;29;20429;-68
2022/10/11 17:45:00;;;;;;;121.57;45.00;;;;;;;;;;4897830;29;20082;-67
2022/10/11 17:47:27;;;;;;;149.73;46.95;;;;;;;;;;4915863;29;20036;-66
2022/10/11 17:49:53;;;;;;;165.80;55.65;;;;;;;;;;4915680;29;20131;-65
2022/10/11 17:52:20;;;;;;;124.82;47.40;;;;;;;;;;4915323;29;20040;-62
2022/10/11 17:54:46;;;;;;;135.20;47.17;;;;;;;;;;4914770;29;20072;-66
2022/10/11 17:57:13;;;;;;;111.43;44.70;;;;;;;;;;4915745;29;20036;-61
2022/10/11 17:59:39;;;;;;;150.27;50.13;;;;;;;;;;4915599;29;20048;-63
2022/10/11 18:02:06;;;;;;;148.60;48.25;;;;;;;;;;4915090;29;20075;-62
2022/10/11 18:04:32;;;;;;;154.43;43.65;;;;;;;;;;4914801;29;20051;-61
2022/10/11 18:06:59;;;;;;;110.22;36.85;;;;;;;;;;4898710;29;20606;-64
2022/10/11 18:09:26;;;;;;;113.00;37.30;;;;;;;;;;4912896;29;20044;-61
2022/10/11 18:11:52;;;;;;;152.32;38.00;;;;;;;;;;4913016;29;20088;-64
2022/10/11 18:14:19;;;;;;;99.72;34.65;;;;;;;;;;4915196;29;20394;-63
2022/10/11 18:16:46;;;;;;;120.43;34.70;;;;;;;;;;4914111;29;20493;-61
2022/10/11 18:19:12;;;;;;;108.97;34.13;;;;;;;;;;4914028;29;20047;-64
2022/10/11 18:21:39;;;;;;;120.88;36.20;;;;;;;;;;4914677;29;20111;-61
2022/10/11 18:24:13;;;;;;;112.70;33.60;;;;;;;;;;4915218;29;20044;-60
2022/10/11 18:26:40;;;;;;;92.90;31.85;;;;;;;;;;4915573;29;20044;-60
2022/10/11 18:29:07;;;;;;;111.28;37.30;;;;;;;;;;4897604;29;20497;-64
2022/10/11 18:31:34;;;;;;;108.97;33.22;;;;;;;;;;4913958;29;20044;-63
2022/10/11 18:34:01;;;;;;;120.25;33.83;;;;;;;;;;4915722;29;20131;-64
2022/10/11 18:36:29;;;;;;;106.00;31.52;;;;;;;;;;4915844;29;20567;-63
2022/10/11 18:38:57;;;;;;;114.78;29.10;;;;;;;;;;4914549;29;20056;-62
2022/10/11 18:41:29;;;;;;;68.65;25.50;;;;;;;;;;4915082;29;20044;-65
2022/10/11 18:43:57;;;;;;;91.35;26.73;;;;;;;;;;4896763;29;20421;-62
2022/10/11 18:46:24;;;;;;;76.53;25.58;;;;;;;;;;4913629;29;20041;-62
2022/10/11 18:48:51;;;;;;;81.50;27.08;;;;;;;;;;4914658;29;20043;-65
2022/10/11 18:51:29;;;;;;;95.00;30.15;;;;;;;;;;4914699;29;20063;-67
2022/10/11 18:53:57;;;;;;;86.85;30.10;;;;;;;;;;4915172;29;20044;-64
2022/10/11 18:56:24;;;;;;;149.65;36.63;;;;;;;;;;4914163;29;20512;-63
2022/10/11 18:58:51;;;;;;;126.82;41.03;;;;;;;;;;4914355;29;20040;-64
2022/10/11 19:01:19;;;;;;;113.22;40.97;;;;;;;;;;4914019;29;20048;-64
2022/10/11 19:03:47;;;;;;;124.32;42.42;;;;;;;;;;4914111;29;20115;-64
2022/10/11 19:06:18;;;;;;;218.85;59.15;;;;;;;;;;4914295;29;20053;-62
2022/10/11 19:08:45;;;;;;;219.00;72.80;;;;;;;;;;4914002;29;20494;-64
2022/10/11 19:11:13;;;;;;;184.85;66.88;;;;;;;;;;4914503;29;20553;-66
2022/10/11 19:13:39;;;;;;;232.88;76.45;;;;;;;;;;4896089;29;20107;-65
2022/10/11 19:16:07;;;;;;;208.45;68.88;;;;;;;;;;4913236;29;20058;-67
2022/10/11 19:18:35;;;;;;;219.35;70.68;;;;;;;;;;4914439;29;20452;-66
2022/10/11 19:21:10;;;;;;;215.98;74.28;;;;;;;;;;4913907;29;20050;-67
2022/10/11 19:23:40;;;;;;;209.18;74.68;;;;;;;;;;4920481;29;20052;-67
2022/10/11 19:26:14;;;;;;;240.18;77.80;;;;;;;;;;4913527;29;20079;-67
2022/10/11 19:28:41;;;;;;;217.73;75.28;;;;;;;;;;4912891;29;20103;-67
2022/10/11 19:31:09;;;;;;;204.27;76.03;;;;;;;;;;4913596;29;20095;-67
2022/10/11 19:33:35;;;;;;;239.75;74.80;;;;;;;;;;4913151;29;20574;-65
2022/10/11 19:36:03;;;;;;;225.50;73.78;;;;;;;;;;4913657;29;20080;-67
2022/10/11 19:38:30;;;;;;;200.43;72.75;;;;;;;;;;4914252;29;20485;-66
2022/10/11 19:40:58;;;;;;;222.35;77.90;;;;;;;;;;4913117;29;20050;-69
2022/10/11 19:43:25;;;;;;;242.57;80.25;;;;;;;;;;4913095;29;20040;-64
2022/10/11 19:45:58;;;;;;;209.32;79.60;;;;;;;;;;4920292;29;20509;-64
2022/10/11 19:48:24;;;;;;;213.77;75.57;;;;;;;;;;4896331;29;20132;-64
2022/10/11 19:50:50;;;;;;;190.02;70.90;;;;;;;;;;4913560;29;20048;-65
2022/10/11 19:53:17;;;;;;;198.45;78.65;;;;;;;;;;4913553;29;20545;-65
2022/10/11 19:55:43;;;;;;;255.63;82.55;;;;;;;;;;4895884;29;20552;-64
2022/10/11 19:58:12;;;;;;;228.98;85.68;;;;;;;;;;4911996;29;20044;-66
2022/10/11 20:00:38;;;;;;;250.15;82.40;;;;;;;;;;4913092;29;20111;-66
2022/10/11 20:03:04;;;;;;;229.95;82.20;;;;;;;;;;4913220;29;20036;-66
2022/10/11 20:05:34;;;;;;;252.77;94.90;;;;;;;;;;4896999;29;20072;-66
2022/10/11 20:08:00;;;;;;;228.57;86.25;;;;;;;;;;4913579;29;20036;-66
2022/10/11 20:10:27;;;;;;;241.65;83.80;;;;;;;;;;4913072;29;20048;-66
2022/10/11 20:12:53;;;;;;;242.90;85.43;;;;;;;;;;4912617;29;20552;-66
2022/10/11 20:15:20;;;;;;;256.02;82.45;;;;;;;;;;4912551;29;20493;-66
2022/10/11 20:17:47;;;;;;;221.13;77.40;;;;;;;;;;4896791;29;20054;-66
2022/10/11 20:20:14;;;;;;;196.32;77.05;;;;;;;;;;4913650;29;20040;-66
2022/10/11 20:22:40;;;;;;;194.02;77.97;;;;;;;;;;4912951;29;20076;-62
2022/10/11 20:25:07;;;;;;;261.52;84.13;;;;;;;;;;4912339;29;20051;-66
2022/10/11 20:27:33;;;;;;;262.88;85.75;;;;;;;;;;4912680;29;20391;-67
2022/10/11 20:30:00;;;;;;;215.98;83.85;;;;;;;;;;4896361;29;20067;-66
2022/10/11 20:32:27;;;;;;;223.23;80.72;;;;;;;;;;4912684;29;20135;-66
2022/10/11 20:34:53;;;;;;;204.45;80.55;;;;;;;;;;4912109;29;20056;-69
2022/10/11 20:37:20;;;;;;;216.73;79.38;;;;;;;;;;4912217;29;20040;-66
2022/10/11 20:39:46;;;;;;;255.93;81.28;;;;;;;;;;4894752;29;20040;-66
2022/10/11 20:42:14;;;;;;;202.55;76.20;;;;;;;;;;4912633;29;20115;-67
2022/10/11 20:44:42;;;;;;;229.75;88.63;;;;;;;;;;4912739;29;20421;-65
2022/10/11 20:47:08;;;;;;;242.98;81.88;;;;;;;;;;4895704;29;20071;-70
2022/10/11 20:49:35;;;;;;;220.68;82.05;;;;;;;;;;4912266;29;20044;-66
2022/10/11 20:52:01;;;;;;;219.05;78.95;;;;;;;;;;4912126;29;20040;-65
2022/10/11 20:54:29;;;;;;;239.88;80.47;;;;;;;;;;4911762;29;20045;-68
2022/10/11 20:56:56;;;;;;;210.55;78.88;;;;;;;;;;4912370;29;20103;-65
2022/10/11 20:59:23;;;;;;;198.10;78.10;;;;;;;;;;4912600;29;20052;-65
2022/10/11 21:01:49;;;;;;;186.38;70.07;;;;;;;;;;4911971;29;20509;-66
2022/10/11 21:04:17;;;;;;;203.05;70.88;;;;;;;;;;4909631;29;20048;-65
2022/10/11 21:06:44;;;;;;;237.38;72.32;;;;;;;;;;4780937;29;20061;-65
2022/10/11 21:09:11;;;;;;;203.63;69.63;;;;;;;;;;4872445;29;20053;-62
2022/10/11 21:11:42;;;;;;;177.50;69.57;;;;;;;;;;4879062;29;20078;-66
2022/10/11 21:14:08;;;;;;;179.35;71.57;;;;;;;;;;4875757;29;20052;-67
2022/10/11 21:16:35;;;;;;;229.48;74.55;;;;;;;;;;4876513;29;20088;-63
2022/10/11 21:19:02;;;;;;;208.18;72.70;;;;;;;;;;4876265;29;20818;-66
2022/10/11 21:21:29;;;;;;;208.70;79.47;;;;;;;;;;4876541;29;20093;-66
2022/10/11 21:23:57;;;;;;;246.20;80.38;;;;;;;;;;4878023;29;20063;-67
2022/10/11 21:26:24;;;;;;;184.27;74.90;;;;;;;;;;4879098;29;20079;-66
2022/10/11 21:28:50;;;;;;;200.20;75.53;;;;;;;;;;4877702;29;20048;-63
2022/10/11 21:31:18;;;;;;;226.90;79.55;;;;;;;;;;4877954;29;20048;-64
2022/10/11 21:33:44;;;;;;;198.30;78.05;;;;;;;;;;4878073;29;20041;-64
2022/10/11 21:36:21;;;;;;;189.52;69.13;;;;;;;;;;4846242;29;20045;-64
2022/10/11 21:38:48;;;;;;;228.30;73.32;;;;;;;;;;4877634;29;20056;-63
2022/10/11 21:41:16;;;;;;;178.90;68.43;;;;;;;;;;4878788;29;20064;-64
2022/10/11 21:43:43;;;;;;;192.05;64.88;;;;;;;;;;4877184;29;20900;-65
2022/10/11 21:46:11;;;;;;;175.85;63.03;;;;;;;;;;4860798;29;20049;-64
2022/10/11 21:48:37;;;;;;;168.10;62.42;;;;;;;;;;4877780;29;20048;-65
2022/10/11 21:51:04;;;;;;;164.48;63.75;;;;;;;;;;4862067;29;20045;-65
2022/10/11 21:53:31;;;;;;;199.82;62.05;;;;;;;;;;4877178;29;20052;-64
2022/10/11 21:55:58;;;;;;;160.00;62.55;;;;;;;;;;4877646;29;20049;-64
2022/10/11 21:58:25;;;;;;;149.32;58.22;;;;;;;;;;4877331;29;20108;-64
2022/10/11 22:00:52;;;;;;;159.10;58.08;;;;;;;;;;4876773;29;20688;-64
2022/10/11 22:03:18;;;;;;;135.48;55.38;;;;;;;;;;4877351;29;20737;-65
2022/10/11 22:05:45;;;;;;;149.18;57.08;;;;;;;;;;4878328;29;20083;-65
2022/10/11 22:08:12;;;;;;;146.63;54.15;;;;;;;;;;4877441;29;20037;-65
2022/10/11 22:10:42;;;;;;;139.07;51.22;;;;;;;;;;4876801;29;20511;-65
2022/10/11 22:13:09;;;;;;;120.57;47.92;;;;;;;;;;4876767;29;20041;-66
2022/10/11 22:15:36;;;;;;;166.05;51.17;;;;;;;;;;4874828;29;20057;-65
2022/10/11 22:18:02;;;;;;;150.73;51.97;;;;;;;;;;4876699;29;20414;-66
2022/10/11 22:20:31;;;;;;;136.57;54.75;;;;;;;;;;4877395;29;20395;-66
2022/10/11 22:22:57;;;;;;;148.95;57.85;;;;;;;;;;4876953;29;20045;-66
2022/10/11 22:25:24;;;;;;;176.95;59.97;;;;;;;;;;4876782;29;20509;-66
2022/10/11 22:27:50;;;;;;;150.35;57.22;;;;;;;;;;4876448;29;20052;-66
2022/10/11 22:30:17;;;;;;;165.13;55.58;;;;;;;;;;4875931;29;20041;-67
2022/10/11 22:32:43;;;;;;;142.35;54.15;;;;;;;;;;4877962;29;20041;-66
2022/10/11 22:35:09;;;;;;;140.57;50.47;;;;;;;;;;4876900;29;20063;-64
2022/10/11 22:37:36;;;;;;;161.10;50.28;;;;;;;;;;4876619;29;20418;-64
2022/10/11 22:40:03;;;;;;;124.90;48.13;;;;;;;;;;4877076;29;20064;-64
2022/10/11 22:42:30;;;;;;;157.68;51.40;;;;;;;;;;4876362;29;20463;-64
2022/10/11 22:44:56;;;;;;;165.27;51.17;;;;;;;;;;4876176;29;20053;-67
2022/10/11 22:47:23;;;;;;;135.85;50.05;;;;;;;;;;4876690;29;20056;-66
2022/10/11 22:49:49;;;;;;;135.30;49.70;;;;;;;;;;4876154;29;20045;-68
2022/10/11 22:52:16;;;;;;;122.13;45.92;;;;;;;;;;4876047;29;20036;-64
2022/10/11 22:54:42;;;;;;;137.55;49.60;;;;;;;;;;4876760;29;20044;-65
2022/10/11 22:57:09;;;;;;;178.52;47.40;;;;;;;;;;4876492;29;20045;-66
2022/10/11 22:59:35;;;;;;;119.68;40.42;;;;;;;;;;4877660;29;20554;-65
2022/10/11 23:02:01;;;;;;;99.75;39.88;;;;;;;;;;4859734;29;20478;-67
2022/10/11 23:04:28;;;;;;;96.68;33.20;;;;;;;;;;4876367;29;20076;-67
2022/10/11 23:06:54;;;;;;;119.97;38.72;;;;;;;;;;4876250;29;20049;-67
2022/10/11 23:09:21;;;;;;;104.47;36.15;;;;;;;;;;4876809;29;20052;-67
2022/10/11 23:11:47;;;;;;;106.38;35.15;;;;;;;;;;4876608;29;20048;-67
2022/10/11 23:14:14;;;;;;;104.18;36.00;;;;;;;;;;4875942;29;20052;-63
2022/10/11 23:16:40;;;;;;;132.57;37.70;;;;;;;;;;4875143;29;20052;-63
2022/10/11 23:19:07;;;;;;;101.43;38.15;;;;;;;;;;4875881;29;20490;-67
2022/10/11 23:21:33;;;;;;;114.93;38.95;;;;;;;;;;4875964;29;20089;-67
2022/10/11 23:24:00;;;;;;;141.50;41.30;;;;;;;;;;4876198;29;20055;-67
2022/10/11 23:26:26;;;;;;;110.88;35.85;;;;;;;;;;4876792;29;20059;-67
2022/10/11 23:28:53;;;;;;;94.85;33.95;;;;;;;;;;4875629;29;20119;-67
2022/10/11 23:31:20;;;;;;;101.18;32.97;;;;;;;;;;4876029;29;20037;-66
2022/10/11 23:33:47;;;;;;;79.70;33.28;;;;;;;;;;4875455;29;20041;-66
2022/10/11 23:36:17;;;;;;;106.75;34.28;;;;;;;;;;4875762;29;20049;-64
2022/10/11 23:38:44;;;;;;;124.10;34.17;;;;;;;;;;4871590;29;20148;-62
2022/10/11 23:41:10;;;;;;;95.88;32.28;;;;;;;;;;4875540;29;20505;-65
2022/10/11 23:43:36;;;;;;;128.75;34.35;;;;;;;;;;4875222;29;20051;-66
2022/10/11 23:46:03;;;;;;;116.82;33.15;;;;;;;;;;4875084;29;20053;-68
2022/10/11 23:48:29;;;;;;;116.60;32.15;;;;;;;;;;4875078;29;20061;-66
2022/10/11 23:50:56;;;;;;;95.68;29.08;;;;;;;;;;4859134;29;20052;-66
2022/10/11 23:53:22;;;;;;;97.45;29.02;;;;;;;;;;4876027;29;20076;-66
2022/10/11 23:55:49;;;;;;;85.57;29.70;;;;;;;;;;4876245;29;20478;-65
2022/10/11 23:58:16;;;;;;;88.35;28.73;;;;;;;;;;4874872;29;20044;-65
